Airfield :
LOGIN :

Register | Disclaimer

   EN    FR    IT 

 










Legend :    VFR   Marginal VFR   IFR   Intensive IFR   Very Intensive IFR
Visi :
Ceiling :
>= 8 km
>= 3000ft
5 to 8 km
1000 to 3000 ft
1500m to 5 km
500 to 1000 ft
800 to 1500m
200 to 500 ft
< 800m
< 200 ft
Symbols :   Thunderstorms  Fog  Heavy snow  Heavy precipitations  Wind > 20 kt
SIGMETs :     Misc.  Thunderstorms  Icing  Turbulence  Mountain Waves  Volcanic Ashes







- Airport Elevation : 81 ft
- IATA code : SCS
- Download approach charts


EGPM - Scatsta

CURRENT METAR :
  • 101650Z VRB03KT 9999 FEW030 02/00 Q1023 NOSIG

EXPIRED METARs :
  • 101620Z 30004KT 270V330 9999 VCSH FEW027 02/M00 Q1023
  • 101550Z 33003KT 9999 VCSH FEW027 03/01 Q1023
  • 101520Z 31004KT 250V330 9999 VCSH FEW018 04/01 Q1023 NOSIG
  • 101450Z 31006KT 9999 VCSH FEW018 04/01 Q1023 NOSIG
  • 101420Z 33011KT 9999 VCSH FEW018 04/02 Q1023 NOSIG

TAF TAF EGPM
Valid from the 10 at 15:00 until the 10 at 20:00 UTC


101354Z 1015/1020 32008KT 9999 FEW015
PROB30
TEMPO 1015/1017 6000 SHRA
No reported NOTAMs for that airfield.



MET'MAP, your aeronautical weather chart ! - Copyright ORBIFLY December 2007 - Disclaimer

ORBIFLY MET'MAP TEAM :

Programming & Development : Alexandra Zaïnal
Concept & Development : Baudouin d'Aumeries
Co-Development & Prog : Marc-Olivier Méhu
Technical & hardware support : Manuel Goepfert

Contact : metmap@orbifly.com




SOURCES & CREDITS :

   NOAA